Time;durP1;ratioP1;P1;durP2;ratioP2;P2;SDS_P1;SDS_P2;PMS_P1;PMS_P2;Temp;Humidity;BMP_temperature;BMP_pressure;BME280_temperature;BME280_humidity;BME280_pressure;Samples;Min_cycle;Max_cycle;Signal;HPM_P1;HPM_P2
2022/05/27 00:01:33;;;;;;;1273.07;375.60;;;13.50;88.60;;;;;;5024795;28;20716;-72
2022/05/27 00:04:00;;;;;;;1068.63;329.40;;;13.50;88.50;;;;;;5027907;28;20077;-72
2022/05/27 00:06:28;;;;;;;1251.57;331.13;;;13.50;88.40;;;;;;5027460;28;20334;-72
2022/05/27 00:08:54;;;;;;;954.67;247.13;;;13.40;88.30;;;;;;5011669;28;20675;-72
2022/05/27 00:11:22;;;;;;;1365.40;361.30;;;13.40;88.30;;;;;;5003959;28;20820;-72
2022/05/27 00:13:49;;;;;;;1289.80;403.77;;;13.40;87.90;;;;;;5010561;28;20284;-72
2022/05/27 00:16:15;;;;;;;919.47;256.40;;;13.30;87.90;;;;;;5027316;28;20304;-72
2022/05/27 00:18:41;;;;;;;1033.73;308.90;;;13.20;88.00;;;;;;5027877;28;20288;-72
2022/05/27 00:21:07;;;;;;;1056.87;308.10;;;13.10;87.90;;;;;;5011646;28;20627;-72
2022/05/27 00:23:34;;;;;;;1213.27;393.87;;;13.00;88.00;;;;;;5026585;28;20104;-72
2022/05/27 00:26:00;;;;;;;1057.37;330.97;;;13.00;88.20;;;;;;5026903;28;20303;-72
2022/05/27 00:28:26;;;;;;;1072.73;351.60;;;12.90;88.50;;;;;;4991940;28;20759;-72
2022/05/27 00:30:52;;;;;;;1326.83;356.93;;;12.80;88.40;;;;;;5011501;28;20049;-72
2022/05/27 00:33:19;;;;;;;1345.27;453.27;;;12.70;88.40;;;;;;5027526;28;20709;-72
2022/05/27 00:35:44;;;;;;;1139.97;307.90;;;12.70;88.70;;;;;;5023090;28;20338;-72
2022/05/27 00:38:10;;;;;;;1143.93;350.33;;;12.70;88.60;;;;;;5011477;28;20295;-72
2022/05/27 00:40:41;;;;;;;1262.53;411.87;;;12.60;88.90;;;;;;5026831;28;20072;-72
2022/05/27 00:43:07;;;;;;;1426.67;438.00;;;12.60;88.90;;;;;;5027538;28;20068;-72
2022/05/27 00:45:36;;;;;;;1269.57;399.77;;;12.50;89.30;;;;;;5026257;28;20328;-72
2022/05/27 00:48:06;;;;;;;1240.87;414.03;;;12.50;89.20;;;;;;5026967;28;21094;-72
2022/05/27 00:50:35;;;;;;;1117.83;379.40;;;12.50;89.20;;;;;;5010720;28;20320;-72
2022/05/27 00:53:06;;;;;;;1368.90;425.37;;;12.40;89.20;;;;;;5010361;28;20792;-72
2022/05/27 00:55:37;;;;;;;1400.37;468.00;;;12.40;89.10;;;;;;5026214;28;20319;-72
2022/05/27 00:58:13;;;;;;;1306.77;413.03;;;12.30;89.10;;;;;;5021017;28;20332;-72
2022/05/27 01:00:39;;;;;;;1361.20;463.50;;;12.20;89.00;;;;;;5021662;28;20308;-72
2022/05/27 01:03:07;;;;;;;1446.57;496.90;;;12.20;88.90;;;;;;5021728;28;20288;-72
2022/05/27 01:05:33;;;;;;;1197.40;381.83;;;12.10;88.80;;;;;;5026743;28;20806;-72
2022/05/27 01:08:05;;;;;;;1432.57;480.13;;;12.10;88.80;;;;;;4977950;28;20300;-72
2022/05/27 01:10:55;;;;;;;1109.13;323.13;;;12.00;88.80;;;;;;5027009;28;20300;-72
2022/05/27 01:13:49;;;;;;;1157.30;435.97;;;11.90;89.00;;;;;;5025781;28;20786;-72
2022/05/27 01:16:41;;;;;;;1315.40;471.00;;;11.90;88.90;;;;;;5009288;28;20304;-72
2022/05/27 01:23:06;;;;;;;1290.83;531.90;;;11.70;88.80;;;;;;5043096;28;20332;-72
2022/05/27 01:25:46;;;;;;;1308.03;513.13;;;11.60;88.60;;;;;;5042691;28;20845;-72
2022/05/27 01:28:40;;;;;;;1371.77;484.70;;;11.50;88.60;;;;;;5026698;28;20292;-72
2022/05/27 01:31:38;;;;;;;1076.53;425.00;;;11.40;88.60;;;;;;5007353;28;20304;-72
2022/05/27 01:34:13;;;;;;;1236.60;437.03;;;11.30;88.70;;;;;;5020887;28;20292;-72
2022/05/27 01:36:57;;;;;;;1267.93;503.08;;;11.30;88.70;;;;;;5024076;28;20284;-72
2022/05/27 01:39:30;;;;;;;1177.00;473.43;;;11.20;88.80;;;;;;5026379;28;20128;-72
2022/05/27 01:42:13;;;;;;;1302.63;498.30;;;11.20;88.80;;;;;;5025862;28;20292;-72
2022/05/27 01:45:01;;;;;;;1228.00;463.27;;;11.20;88.80;;;;;;5026642;28;20272;-72
2022/05/27 01:47:40;;;;;;;1291.13;492.10;;;11.10;89.00;;;;;;5008728;28;20790;-72
2022/05/27 01:50:17;;;;;;;1198.87;443.87;;;11.10;89.00;;;;;;5025994;28;20288;-71
2022/05/27 01:52:55;;;;;;;1275.03;472.37;;;11.10;89.10;;;;;;5025723;28;20312;-71
2022/05/27 01:55:28;;;;;;;1242.60;505.13;;;11.00;89.00;;;;;;5042474;28;20368;-71
2022/05/27 01:58:06;;;;;;;1132.30;423.17;;;11.00;89.10;;;;;;5025908;28;20644;-72
2022/05/27 02:00:34;;;;;;;1236.73;455.00;;;11.00;89.20;;;;;;5024120;28;20342;-72
2022/05/27 02:03:04;;;;;;;1229.00;444.13;;;11.00;89.00;;;;;;5009619;28;20295;-71
2022/05/27 02:05:44;;;;;;;1169.13;409.83;;;11.00;89.00;;;;;;5025681;28;20283;-71
2022/05/27 02:08:21;;;;;;;1363.70;517.47;;;11.00;89.10;;;;;;5026019;28;20371;-71
2022/05/27 02:11:00;;;;;;;1316.97;505.67;;;10.90;89.00;;;;;;5025418;28;20304;-71
2022/05/27 02:13:45;;;;;;;1008.90;436.23;;;10.90;89.00;;;;;;5008862;28;20284;-72
2022/05/27 02:16:17;;;;;;;1296.53;527.20;;;10.80;89.00;;;;;;5025818;28;20379;-72
2022/05/27 02:18:52;;;;;;;1174.27;467.13;;;10.70;88.90;;;;;;5024527;28;20060;-72
2022/05/27 02:21:34;;;;;;;1217.07;450.00;;;10.70;88.90;;;;;;5022008;28;20652;-72
2022/05/27 02:24:15;;;;;;;1200.47;501.10;;;10.70;89.00;;;;;;5025285;28;20215;-72
2022/05/27 02:26:48;;;;;;;1185.57;480.50;;;10.60;88.90;;;;;;5025857;28;20299;-72
2022/05/27 02:29:18;;;;;;;1217.70;506.13;;;10.60;88.90;;;;;;5009562;28;20727;-72
2022/05/27 02:31:49;;;;;;;1193.87;472.10;;;10.50;88.90;;;;;;5025090;28;20303;-72
2022/05/27 02:37:14;;;;;;;1130.60;434.83;;;10.50;88.90;;;;;;5034613;28;20291;-72
2022/05/27 02:39:40;;;;;;;1096.77;447.37;;;10.50;89.00;;;;;;5003428;28;20272;-72
2022/05/27 02:42:11;;;;;;;1144.17;456.00;;;10.50;89.10;;;;;;5008452;28;20366;-71
2022/05/27 02:44:57;;;;;;;1165.30;452.83;;;10.50;89.10;;;;;;5008683;28;20292;-71
2022/05/27 02:47:48;;;;;;;1147.38;466.65;;;10.50;89.20;;;;;;5019236;28;20293;-71
2022/05/27 02:50:19;;;;;;;1320.13;535.97;;;10.50;89.10;;;;;;5019915;28;20041;-71
2022/05/27 02:52:54;;;;;;;1173.47;495.48;;;10.40;89.10;;;;;;5005613;28;20280;-71
2022/05/27 02:56:03;;;;;;;1078.72;461.35;;;10.40;89.10;;;;;;5007460;28;20045;-72
2022/05/27 02:58:31;;;;;;;1266.30;514.83;;;10.40;89.10;;;;;;5020314;28;20104;-72
2022/05/27 03:00:57;;;;;;;1179.30;472.90;;;10.40;89.30;;;;;;5008563;28;20076;-72
2022/05/27 03:03:23;;;;;;;1044.85;427.63;;;10.50;89.10;;;;;;5008219;28;20041;-72
2022/05/27 03:06:08;;;;;;;1295.93;490.13;;;10.50;89.00;;;;;;5008228;28;20041;-72
2022/05/27 03:08:39;;;;;;;1304.93;504.80;;;10.50;89.00;;;;;;5022991;28;20610;-72
2022/05/27 03:11:16;;;;;;;1283.57;527.87;;;10.50;88.90;;;;;;5024490;28;20405;-72
2022/05/27 03:14:11;;;;;;;1197.15;509.90;;;10.50;88.80;;;;;;5021345;28;20453;-72
2022/05/27 03:17:16;;;;;;;917.70;345.83;;;10.40;88.80;;;;;;5022490;28;20037;-72
2022/05/27 03:20:23;;;;;;;1118.32;509.02;;;10.40;88.70;;;;;;5017046;28;20045;-72
2022/05/27 03:22:58;;;;;;;1186.75;517.55;;;10.40;88.70;;;;;;4983318;28;20041;-72
2022/05/27 03:25:33;;;;;;;1151.83;512.37;;;10.40;88.60;;;;;;5018467;28;20130;-72
2022/05/27 03:28:06;;;;;;;1333.13;570.97;;;10.40;88.70;;;;;;5024706;28;20045;-72
2022/05/27 03:30:56;;;;;;;1209.32;499.88;;;10.40;88.60;;;;;;5024614;28;20148;-72
2022/05/27 03:33:25;;;;;;;992.30;450.52;;;10.40;88.50;;;;;;5014665;28;20589;-72
2022/05/27 03:36:00;;;;;;;1136.87;466.77;;;10.40;88.30;;;;;;5025281;28;20049;-72
2022/05/27 03:39:13;;;;;;;1030.43;444.75;;;10.40;88.10;;;;;;5009045;28;20273;-71
2022/05/27 03:41:45;;;;;;;1149.05;539.42;;;10.40;87.90;;;;;;4991355;28;20448;-71
2022/05/27 03:44:20;;;;;;;962.60;452.15;;;10.40;87.50;;;;;;5041066;28;20398;-72
2022/05/27 03:46:49;;;;;;;1227.45;519.47;;;10.40;87.10;;;;;;5008958;28;20037;-72
2022/05/27 03:49:15;;;;;;;1132.07;507.05;;;10.50;86.50;;;;;;5025403;28;20470;-72
2022/05/27 03:52:02;;;;;;;1171.07;574.20;;;10.50;86.10;;;;;;5007967;28;20111;-72
2022/05/27 03:54:27;;;;;;;1205.15;512.08;;;10.60;86.10;;;;;;5035174;28;20064;-71
2022/05/27 03:56:53;;;;;;;1177.07;499.37;;;10.60;84.80;;;;;;5022162;28;20045;-72
2022/05/27 03:59:19;;;;;;;1140.80;503.27;;;10.60;84.60;;;;;;5010651;28;20099;-72
2022/05/27 04:01:49;;;;;;;1152.38;475.40;;;10.70;84.00;;;;;;5011277;28;20073;-72
2022/05/27 04:04:18;;;;;;;1133.00;456.30;;;10.70;84.20;;;;;;5027878;28;20042;-72
2022/05/27 04:06:46;;;;;;;1128.80;470.87;;;10.70;84.20;;;;;;5028369;28;20128;-72
2022/05/27 04:09:11;;;;;;;1278.80;525.60;;;10.70;83.80;;;;;;5028570;28;20284;-72
2022/05/27 04:11:38;;;;;;;1095.30;461.43;;;10.80;83.60;;;;;;5028506;28;20042;-72
2022/05/27 04:14:03;;;;;;;1142.47;488.70;;;10.80;83.20;;;;;;5010707;28;20119;-72
2022/05/27 04:16:29;;;;;;;1157.30;482.57;;;10.80;82.80;;;;;;5011164;28;20292;-72
2022/05/27 04:18:55;;;;;;;1116.60;459.50;;;10.80;82.70;;;;;;4992741;28;20041;-72
2022/05/27 04:21:20;;;;;;;975.00;408.80;;;10.90;81.80;;;;;;4996400;28;20077;-72
2022/05/27 04:23:46;;;;;;;1038.80;446.63;;;11.00;81.60;;;;;;4978083;28;20153;-72
2022/05/27 04:26:12;;;;;;;1103.00;444.53;;;11.00;81.80;;;;;;4995220;28;20041;-72
2022/05/27 04:28:38;;;;;;;1087.27;443.70;;;11.10;81.50;;;;;;5027768;28;20057;-72
2022/05/27 04:31:04;;;;;;;1174.90;452.63;;;11.20;81.10;;;;;;5027308;28;20046;-72
2022/05/27 04:33:30;;;;;;;1024.97;396.67;;;11.30;80.50;;;;;;5010434;28;20168;-72
2022/05/27 04:35:58;;;;;;;1042.53;440.43;;;11.30;80.10;;;;;;5010370;28;20287;-72
2022/05/27 04:38:24;;;;;;;1063.17;436.43;;;11.30;80.20;;;;;;5011223;28;20288;-72
2022/05/27 04:40:50;;;;;;;1156.50;445.97;;;11.40;80.50;;;;;;5010921;28;20288;-72
2022/05/27 04:43:16;;;;;;;1102.87;416.57;;;11.40;80.40;;;;;;4993965;28;20698;-72
2022/05/27 04:45:42;;;;;;;1172.63;434.97;;;11.30;80.60;;;;;;5004459;28;20071;-72
2022/05/27 04:48:09;;;;;;;1167.33;478.23;;;11.30;80.50;;;;;;5021654;28;20064;-72
2022/05/27 04:50:35;;;;;;;1138.40;438.40;;;11.30;80.30;;;;;;5010737;28;20322;-72
2022/05/27 04:53:01;;;;;;;1100.10;424.77;;;11.20;80.50;;;;;;5009839;28;20900;-72
2022/05/27 04:55:30;;;;;;;1060.73;404.07;;;11.20;80.20;;;;;;5025882;28;20777;-72
2022/05/27 04:57:57;;;;;;;875.87;392.27;;;11.20;79.60;;;;;;4994176;28;20289;-72
2022/05/27 05:00:29;;;;;;;1033.70;425.30;;;11.20;80.00;;;;;;5027014;28;20569;-72
2022/05/27 05:02:55;;;;;;;899.07;393.43;;;11.30;79.70;;;;;;5026139;28;20651;-72
2022/05/27 05:05:24;;;;;;;913.33;364.93;;;11.50;79.40;;;;;;5010538;28;20323;-72
2022/05/27 05:07:56;;;;;;;796.67;363.00;;;12.00;79.50;;;;;;5024241;28;20296;-72
2022/05/27 05:10:23;;;;;;;968.77;406.73;;;12.80;75.70;;;;;;5026843;28;20284;-72
2022/05/27 05:12:49;;;;;;;911.63;358.77;;;13.40;72.40;;;;;;5010019;28;20327;-72
2022/05/27 05:15:16;;;;;;;888.87;366.83;;;13.60;70.70;;;;;;5009170;28;20284;-72
2022/05/27 05:17:42;;;;;;;1060.23;442.63;;;14.00;69.10;;;;;;5026641;28;20367;-72
2022/05/27 05:20:11;;;;;;;1011.63;405.17;;;14.20;67.20;;;;;;5020466;28;20278;-72
2022/05/27 05:22:36;;;;;;;938.57;406.10;;;14.10;67.20;;;;;;5004076;28;20283;-72
2022/05/27 05:25:03;;;;;;;1008.27;419.57;;;14.00;67.70;;;;;;5009598;28;20342;-72
2022/05/27 05:27:28;;;;;;;983.57;400.40;;;14.10;66.90;;;;;;5010053;28;20042;-73
2022/05/27 05:29:56;;;;;;;972.90;452.47;;;13.90;66.00;;;;;;5010100;28;20288;-72
2022/05/27 05:32:22;;;;;;;964.00;397.63;;;13.60;67.10;;;;;;5026098;28;20128;-72
2022/05/27 05:34:48;;;;;;;959.73;397.87;;;13.40;67.80;;;;;;5026589;28;20292;-72
2022/05/27 05:37:16;;;;;;;1040.97;429.67;;;13.40;68.20;;;;;;5010213;28;20647;-72
2022/05/27 05:39:42;;;;;;;1021.70;404.80;;;13.40;68.40;;;;;;5026687;28;20776;-72
2022/05/27 05:42:08;;;;;;;1022.90;424.70;;;13.60;68.40;;;;;;5004977;28;20284;-72
2022/05/27 05:44:35;;;;;;;1016.30;412.73;;;14.00;68.10;;;;;;5026136;28;20099;-72
2022/05/27 05:47:02;;;;;;;1105.77;471.17;;;14.30;66.30;;;;;;5009704;28;20716;-72
2022/05/27 05:49:28;;;;;;;946.00;405.00;;;14.70;64.60;;;;;;5009634;28;20295;-72
2022/05/27 05:51:57;;;;;;;1097.77;425.57;;;14.80;61.60;;;;;;5008876;28;20316;-73
2022/05/27 05:54:24;;;;;;;1175.67;496.90;;;14.60;59.90;;;;;;5009510;28;20858;-73
2022/05/27 05:56:50;;;;;;;1089.00;472.33;;;14.60;60.90;;;;;;5010262;28;20644;-72
2022/05/27 05:59:16;;;;;;;1086.57;457.90;;;14.30;62.00;;;;;;4993275;28;20283;-72
2022/05/27 06:01:43;;;;;;;1048.77;421.47;;;14.50;61.90;;;;;;5009485;28;20295;-72
2022/05/27 06:04:09;;;;;;;1094.63;441.90;;;14.80;62.30;;;;;;4993023;28;20721;-72
2022/05/27 06:06:36;;;;;;;962.63;460.50;;;15.20;60.40;;;;;;5009713;28;20292;-72
2022/05/27 06:09:03;;;;;;;1074.57;503.67;;;15.40;58.50;;;;;;4992767;28;20722;-72
2022/05/27 06:11:28;;;;;;;1123.30;549.23;;;15.50;59.30;;;;;;5039707;28;20362;-72
2022/05/27 06:13:54;;;;;;;1317.03;640.93;;;15.80;57.50;;;;;;5009341;28;20319;-72
2022/05/27 06:16:20;;;;;;;1215.70;678.63;;;15.60;55.10;;;;;;5026096;28;20073;-72
2022/05/27 06:18:46;;;;;;;1240.13;626.17;;;15.60;55.20;;;;;;5007875;28;20099;-72
2022/05/27 06:21:12;;;;;;;1295.23;700.57;;;15.70;55.00;;;;;;5003183;28;20486;-73
2022/05/27 06:23:38;;;;;;;1169.40;616.30;;;15.80;53.70;;;;;;5009758;28;20280;-73
2022/05/27 06:26:09;;;;;;;1300.87;595.70;;;16.20;54.90;;;;;;5009278;28;20643;-72
2022/05/27 06:36:50;;;;;;;1216.85;649.60;;;16.10;54.20;;;;;;5026834;28;20037;-72
2022/05/27 06:39:16;;;;;;;1270.93;675.87;;;16.20;53.30;;;;;;5026106;28;20511;-72
2022/05/27 06:41:43;;;;;;;1213.03;735.37;;;16.20;53.30;;;;;;5009143;28;20284;-72
2022/05/27 06:44:09;;;;;;;1151.30;655.77;;;16.40;53.30;;;;;;5009363;28;20780;-73
2022/05/27 06:46:36;;;;;;;1346.00;748.50;;;16.30;53.90;;;;;;5008987;28;20866;-72
2022/05/27 06:49:02;;;;;;;1392.27;686.47;;;16.20;54.30;;;;;;5025312;28;20434;-72
2022/05/27 06:51:29;;;;;;;1232.87;726.23;;;15.60;54.80;;;;;;5024952;28;20440;-72
2022/05/27 06:53:55;;;;;;;1243.63;722.27;;;15.10;56.30;;;;;;5025145;28;20498;-72
2022/05/27 06:56:21;;;;;;;1316.33;724.00;;;14.80;57.10;;;;;;5023518;28;20284;-72
2022/05/27 06:58:47;;;;;;;1316.83;721.40;;;14.90;58.40;;;;;;5025660;28;20287;-72
2022/05/27 07:01:15;;;;;;;1548.63;744.77;;;15.10;57.90;;;;;;5024882;28;20865;-72
2022/05/27 07:03:41;;;;;;;1491.73;642.93;;;15.40;58.60;;;;;;5008290;28;20307;-72
2022/05/27 07:06:08;;;;;;;1485.23;673.97;;;15.50;57.00;;;;;;5024817;28;20660;-72
2022/05/27 07:08:35;;;;;;;1292.17;631.87;;;15.50;57.00;;;;;;5009127;28;20041;-72
2022/05/27 07:11:01;;;;;;;1209.43;660.50;;;15.10;56.60;;;;;;4991988;28;20314;-72
2022/05/27 07:13:27;;;;;;;1320.27;678.60;;;14.70;56.30;;;;;;5008590;28;20277;-73
2022/05/27 07:15:52;;;;;;;1393.80;687.20;;;14.60;56.20;;;;;;5024809;28;20334;-73
2022/05/27 07:18:19;;;;;;;1402.27;705.07;;;14.60;57.80;;;;;;5008435;28;20537;-72
2022/05/27 07:20:45;;;;;;;1349.73;701.17;;;14.80;57.30;;;;;;5002291;28;20072;-73
2022/05/27 07:23:11;;;;;;;1480.43;692.97;;;14.70;56.90;;;;;;5004056;28;20769;-72
2022/05/27 07:25:37;;;;;;;1315.87;636.13;;;14.50;57.30;;;;;;5007313;28;20307;-72
2022/05/27 07:28:06;;;;;;;1317.97;646.50;;;14.10;56.70;;;;;;5024856;28;20827;-72
2022/05/27 07:30:33;;;;;;;1263.33;689.47;;;13.80;57.70;;;;;;4988904;28;20391;-73
2022/05/27 07:32:58;;;;;;;1594.00;733.77;;;13.70;58.40;;;;;;5007226;28;20314;-72
2022/05/27 07:35:24;;;;;;;1254.80;578.07;;;13.80;58.00;;;;;;5009523;28;20280;-73
2022/05/27 07:37:50;;;;;;;1172.23;683.87;;;13.90;58.60;;;;;;5006689;28;20029;-72
2022/05/27 07:40:16;;;;;;;1355.80;667.47;;;13.90;57.10;;;;;;5012306;28;20038;-72
2022/05/27 07:42:42;;;;;;;1257.97;682.90;;;13.80;57.50;;;;;;5006380;28;20572;-72
2022/05/27 07:45:11;;;;;;;1393.83;726.47;;;13.90;58.00;;;;;;5027803;28;20292;-72
2022/05/27 07:47:37;;;;;;;1373.97;695.17;;;14.00;57.00;;;;;;5012541;28;20719;-72
2022/05/27 07:50:03;;;;;;;1562.50;666.43;;;14.00;56.30;;;;;;5028860;28;20839;-72
2022/05/27 07:52:30;;;;;;;1494.33;798.23;;;14.00;57.40;;;;;;5026932;28;20049;-72
2022/05/27 07:54:55;;;;;;;1375.33;730.07;;;14.00;57.70;;;;;;5010773;28;20788;-72
2022/05/27 07:57:25;;;;;;;1393.83;710.73;;;14.10;57.70;;;;;;5028598;28;20285;-73
2022/05/27 08:00:08;;;;;;;1337.93;714.17;;;14.30;57.30;;;;;;5011689;28;20064;-72
2022/05/27 08:02:34;;;;;;;1385.73;748.63;;;14.20;56.40;;;;;;5021410;28;20285;-72
2022/05/27 08:04:59;;;;;;;1433.20;735.53;;;14.10;57.80;;;;;;5028217;28;20671;-72
2022/05/27 08:07:26;;;;;;;1356.67;705.63;;;14.10;57.70;;;;;;5028313;28;20048;-72
2022/05/27 08:09:53;;;;;;;1401.77;736.67;;;14.30;56.70;;;;;;5027969;28;20095;-72
2022/05/27 08:12:18;;;;;;;1281.00;655.90;;;14.40;57.70;;;;;;5020158;28;20312;-72
2022/05/27 08:14:44;;;;;;;1435.93;774.00;;;14.40;56.60;;;;;;5020849;28;20303;-72
2022/05/27 08:17:10;;;;;;;1381.37;706.83;;;14.50;54.80;;;;;;5004694;28;20066;-72
2022/05/27 08:19:36;;;;;;;1456.87;736.33;;;14.40;53.90;;;;;;5020548;28;20041;-72
2022/05/27 08:22:03;;;;;;;1706.20;721.87;;;14.40;55.40;;;;;;5020366;28;20583;-72
2022/05/27 08:24:29;;;;;;;1388.90;756.30;;;14.50;55.30;;;;;;5021456;28;20288;-72
2022/05/27 08:26:54;;;;;;;1446.30;759.13;;;14.70;55.80;;;;;;4997854;28;20301;-72
2022/05/27 08:29:20;;;;;;;1312.70;714.17;;;14.70;55.30;;;;;;5020742;28;20049;-72
2022/05/27 08:31:46;;;;;;;1414.17;796.33;;;14.70;55.90;;;;;;4970896;28;20530;-72
2022/05/27 08:39:46;;;;;;;1322.57;736.22;;;14.30;55.90;;;;;;5024000;28;20317;-72
2022/05/27 08:42:39;;;;;;;1436.20;752.97;;;14.50;56.00;;;;;;5034436;28;20041;-72
2022/05/27 08:45:19;;;;;;;1328.83;740.80;;;14.90;54.90;;;;;;5021762;28;20581;-71
2022/05/27 08:47:56;;;;;;;1347.37;728.37;;;15.00;55.00;;;;;;5025978;28;20634;-72
2022/05/27 08:50:24;;;;;;;1428.67;707.70;;;15.20;55.30;;;;;;5007115;28;20343;-72
2022/05/27 08:52:58;;;;;;;1545.37;743.70;;;15.30;53.60;;;;;;5005810;28;20652;-72
2022/05/27 09:01:20;;;;;;;1390.10;779.73;;;15.50;55.70;;;;;;5021259;28;20353;-72
2022/05/27 09:03:55;;;;;;;1372.37;732.67;;;15.30;53.00;;;;;;5016449;28;20788;-72
2022/05/27 09:06:27;;;;;;;;;;;15.10;54.10;;;;;;5020523;28;20288;-72
2022/05/27 09:08:53;;;;;;;1390.70;833.30;;;14.90;54.10;;;;;;5002610;28;19924;-72
2022/05/27 09:11:34;;;;;;;1526.73;775.80;;;15.00;56.20;;;;;;5024557;28;20304;-72
2022/05/27 09:14:09;;;;;;;1236.47;652.57;;;15.40;56.20;;;;;;5017511;28;20292;-72
2022/05/27 09:16:48;;;;;;;1357.70;734.67;;;15.60;54.70;;;;;;5022455;28;20284;-72
2022/05/27 09:19:36;;;;;;;1462.50;734.57;;;15.30;53.20;;;;;;5017327;28;20103;-72
2022/05/27 09:22:09;;;;;;;1187.43;708.93;;;14.90;54.20;;;;;;5002816;28;20313;-72
2022/05/27 09:24:46;;;;;;;1416.90;741.10;;;14.90;55.50;;;;;;5021553;28;20882;-72
2022/05/27 09:27:21;;;;;;;1499.17;775.60;;;15.10;55.10;;;;;;5002768;28;20284;-72
2022/05/27 09:30:22;;;;;;;1194.57;671.38;;;15.20;55.50;;;;;;5002498;28;20276;-72
2022/05/27 09:32:55;;;;;;;1560.80;787.03;;;15.10;55.40;;;;;;4947390;28;20077;-72
2022/05/27 09:35:24;;;;;;;1392.17;704.63;;;15.20;56.30;;;;;;4995730;28;20351;-72
2022/05/27 09:37:53;;;;;;;1402.77;723.13;;;15.50;55.10;;;;;;5022589;28;20288;-72
2022/05/27 09:40:35;;;;;;;1304.70;726.80;;;15.70;54.90;;;;;;5020193;28;20291;-72
2022/05/27 09:43:09;;;;;;;1242.87;685.47;;;15.60;52.90;;;;;;5029014;28;20399;-72
2022/05/27 09:45:35;;;;;;;1508.77;746.47;;;15.30;53.70;;;;;;5012275;28;20291;-72
2022/05/27 09:48:04;;;;;;;1321.93;727.80;;;15.40;54.90;;;;;;5003134;28;20288;-72
2022/05/27 09:50:50;;;;;;;1320.53;761.87;;;15.70;54.20;;;;;;5021079;28;21142;-72
2022/05/27 09:53:36;;;;;;;1432.77;765.03;;;15.90;53.40;;;;;;5021142;28;20644;-72
2022/05/27 09:56:04;;;;;;;;;;;15.80;53.00;;;;;;5034687;28;20291;-72
2022/05/27 09:58:36;;;;;;;1422.93;704.77;;;15.80;54.00;;;;;;5026680;28;20208;-72
2022/05/27 10:01:18;;;;;;;1677.40;806.97;;;15.80;54.20;;;;;;5019625;28;20307;-72
2022/05/27 10:03:44;;;;;;;1318.90;699.90;;;15.80;54.40;;;;;;5042584;28;20403;-72
2022/05/27 10:06:19;;;;;;;1446.03;675.37;;;15.60;53.90;;;;;;5012949;28;20914;-72
2022/05/27 10:08:59;;;;;;;1714.90;809.40;;;15.50;53.70;;;;;;5013972;28;20068;-72
2022/05/27 10:11:27;;;;;;;1344.77;772.27;;;15.40;51.90;;;;;;5019183;28;20493;-72
2022/05/27 10:14:22;;;;;;;1273.10;744.63;;;15.60;52.90;;;;;;5005057;28;20614;-72
2022/05/27 10:17:11;;;;;;;1547.47;749.80;;;15.70;54.00;;;;;;5023181;28;20288;-72
2022/05/27 10:19:38;;;;;;;1565.33;754.17;;;15.40;54.90;;;;;;5007798;28;20034;-72
2022/05/27 10:22:23;;;;;;;1292.90;663.73;;;15.20;55.00;;;;;;5007496;28;20815;-71
2022/05/27 10:25:06;;;;;;;1429.68;733.28;;;15.20;54.80;;;;;;5005388;28;20284;-72
2022/05/27 10:27:52;;;;;;;1228.53;646.73;;;15.50;55.90;;;;;;5023240;28;20151;-72
2022/05/27 10:30:21;;;;;;;1539.20;723.53;;;15.50;54.80;;;;;;5004822;28;20290;-72
2022/05/27 10:32:47;;;;;;;1501.63;792.47;;;15.40;54.80;;;;;;5022976;28;20365;-71
2022/05/27 10:35:16;;;;;;;1448.13;708.80;;;15.30;54.80;;;;;;5004062;28;20284;-72
2022/05/27 10:37:47;;;;;;;1480.73;767.73;;;15.10;55.20;;;;;;5015275;28;20522;-72
2022/05/27 10:40:34;;;;;;;1336.53;671.80;;;15.10;55.70;;;;;;5015317;28;20269;-72
2022/05/27 10:43:15;;;;;;;1431.10;737.70;;;15.60;57.20;;;;;;4998693;28;20407;-72
2022/05/27 10:45:44;;;;;;;1285.93;714.77;;;16.00;56.20;;;;;;5016499;28;20371;-72
2022/05/27 10:48:36;;;;;;;1399.97;739.70;;;16.10;54.00;;;;;;5014089;28;20286;-72
2022/05/27 10:51:29;;;;;;;1293.50;683.70;;;15.80;53.30;;;;;;5013792;28;20767;-72
2022/05/27 10:54:05;;;;;;;1435.27;777.27;;;15.70;55.40;;;;;;5013734;28;20300;-72
2022/05/27 11:02:04;;;;;;;1333.10;705.13;;;16.10;55.40;;;;;;5005268;28;20284;-72
2022/05/27 11:02:58;;;;;;;1398.57;698.67;;;16.30;55.70;;;;;;5011432;28;20303;-72
2022/05/27 11:06:01;;;;;;;1296.53;685.90;;;16.20;56.20;;;;;;5023116;28;20296;-72
2022/05/27 11:08:30;;;;;;;1436.47;726.63;;;16.30;54.80;;;;;;5022708;28;20300;-71
2022/05/27 11:11:02;;;;;;;1466.03;699.13;;;16.30;55.50;;;;;;5039187;28;20300;-72
2022/05/27 11:16:49;;;;;;;1374.97;690.03;;;16.30;52.80;;;;;;5027173;28;20354;-72
2022/05/27 11:19:30;;;;;;;1246.75;683.25;;;15.90;54.20;;;;;;5020287;28;20295;-72
2022/05/27 11:22:15;;;;;;;1621.67;605.93;;;15.70;54.70;;;;;;5023147;28;20053;-72
2022/05/27 11:25:05;;;;;;;1542.28;794.53;;;15.60;56.10;;;;;;5029746;28;20635;-71
2022/05/27 11:27:53;;;;;;;1412.03;700.03;;;16.00;55.30;;;;;;5037754;28;20042;-72
2022/05/27 11:30:37;;;;;;;1311.07;653.93;;;16.10;53.30;;;;;;5007305;28;20342;-72
2022/05/27 11:33:34;;;;;;;1341.97;688.35;;;15.90;53.50;;;;;;5036151;28;20506;-72
2022/05/27 11:36:18;;;;;;;1328.97;700.90;;;15.70;54.90;;;;;;5028723;28;20124;-71
2022/05/27 11:39:05;;;;;;;1568.93;700.27;;;15.70;56.90;;;;;;5028615;28;20371;-71
2022/05/27 11:41:39;;;;;;;1460.30;714.70;;;15.90;56.30;;;;;;5003745;28;20342;-72
2022/05/27 11:44:33;;;;;;;1430.73;679.37;;;16.00;55.40;;;;;;5028156;28;20312;-71
2022/05/27 11:47:17;;;;;;;1394.30;719.30;;;15.90;55.90;;;;;;5028107;28;20303;-71
2022/05/27 11:50:15;;;;;;;1298.83;564.07;;;15.90;56.50;;;;;;5012426;28;20338;-72
2022/05/27 11:52:57;;;;;;;1368.00;664.73;;;16.00;54.80;;;;;;4985394;28;20802;-72
2022/05/27 11:55:54;;;;;;;1387.93;674.93;;;15.90;55.30;;;;;;5024331;28;20316;-72
2022/05/27 11:58:49;;;;;;;1417.70;715.70;;;15.80;55.40;;;;;;5027125;28;20400;-72
2022/05/27 12:01:37;;;;;;;1401.03;734.03;;;15.70;55.50;;;;;;5026274;28;20834;-72
2022/05/27 12:04:12;;;;;;;1589.27;754.67;;;15.50;55.50;;;;;;5047368;28;20292;-71
2022/05/27 12:06:52;;;;;;;1230.55;570.67;;;15.50;57.00;;;;;;5018275;28;20303;-72
2022/05/27 12:09:24;;;;;;;1409.70;731.90;;;15.50;56.60;;;;;;5011780;28;20516;-71
2022/05/27 12:12:13;;;;;;;1482.40;696.77;;;15.30;56.60;;;;;;5029123;28;20304;-71
2022/05/27 12:14:49;;;;;;;1325.37;651.20;;;15.30;57.20;;;;;;5020178;28;20284;-71
2022/05/27 12:17:20;;;;;;;1189.57;607.93;;;15.30;56.00;;;;;;5009928;28;20295;-71
2022/05/27 12:19:55;;;;;;;1591.67;646.83;;;15.20;56.70;;;;;;5020384;28;20295;-72
2022/05/27 12:22:24;;;;;;;1302.45;681.55;;;15.00;56.40;;;;;;5027680;28;20772;-71
2022/05/27 12:25:14;;;;;;;1272.67;589.43;;;15.00;57.60;;;;;;5011334;28;20033;-71
2022/05/27 12:27:40;;;;;;;1447.63;686.73;;;15.30;59.40;;;;;;5023364;28;20284;-72
2022/05/27 12:30:08;;;;;;;1373.33;693.90;;;15.50;55.20;;;;;;5044242;28;20644;-72
2022/05/27 12:32:38;;;;;;;1283.43;673.93;;;15.30;55.90;;;;;;5026612;28;20063;-71
2022/05/27 12:35:21;;;;;;;1407.83;550.43;;;15.10;56.50;;;;;;5027720;28;20284;-71
2022/05/27 12:37:59;;;;;;;1443.50;696.63;;;15.10;56.50;;;;;;5021683;28;20280;-71
2022/05/27 12:40:32;;;;;;;1423.37;588.33;;;15.30;57.90;;;;;;5010805;28;20311;-71
2022/05/27 12:43:17;;;;;;;1355.77;655.60;;;15.40;57.80;;;;;;5026855;28;20300;-71
2022/05/27 12:45:42;;;;;;;1487.47;696.10;;;15.40;57.60;;;;;;5028236;28;20773;-71
2022/05/27 12:48:09;;;;;;;1414.43;700.57;;;15.40;57.50;;;;;;5009085;28;20292;-71
2022/05/27 12:50:38;;;;;;;1396.93;716.07;;;15.40;56.00;;;;;;5022601;28;20759;-72
2022/05/27 12:53:19;;;;;;;1331.83;723.57;;;15.40;56.50;;;;;;5023952;28;20304;-71
2022/05/27 13:02:21;;;;;;;1300.50;704.60;;;15.20;57.00;;;;;;5025430;28;20287;-71
2022/05/27 13:04:52;;;;;;;1328.60;696.43;;;15.20;57.50;;;;;;5008512;28;20819;-72
2022/05/27 13:07:27;;;;;;;1297.10;689.70;;;15.20;56.90;;;;;;5008584;28;20812;-71
2022/05/27 13:09:53;;;;;;;1423.70;700.75;;;15.20;56.60;;;;;;5027650;28;20284;-71